sensor_id;sensor_type;location;lat;lon;timestamp;pressure;altitude;pressure_sealevel;temperature;humidity
52651;BME280;38537;47.226;39.702;2023-06-19T00:02:18;100148.53;;;19.61;48.10
52651;BME280;38537;47.226;39.702;2023-06-19T00:04:45;100126.31;;;19.44;48.00
52651;BME280;38537;47.226;39.702;2023-06-19T00:07:13;100135.56;;;19.41;47.80
52651;BME280;38537;47.226;39.702;2023-06-19T00:09:41;100161.94;;;19.45;48.41
52651;BME280;38537;47.226;39.702;2023-06-19T00:12:08;100144.06;;;19.41;48.44
52651;BME280;38537;47.226;39.702;2023-06-19T00:14:36;100137.22;;;19.23;48.55
52651;BME280;38537;47.226;39.702;2023-06-19T00:17:04;100152.25;;;19.27;48.95
52651;BME280;38537;47.226;39.702;2023-06-19T00:19:32;100120.63;;;19.05;49.08
52651;BME280;38537;47.226;39.702;2023-06-19T00:22:03;100142.09;;;19.06;49.07
52651;BME280;38537;47.226;39.702;2023-06-19T00:24:32;100140.31;;;18.98;49.16
52651;BME280;38537;47.226;39.702;2023-06-19T00:27:00;100146.72;;;18.95;49.18
52651;BME280;38537;47.226;39.702;2023-06-19T00:29:30;100147.44;;;18.92;48.69
52651;BME280;38537;47.226;39.702;2023-06-19T00:32:00;100147.06;;;18.94;49.16
52651;BME280;38537;47.226;39.702;2023-06-19T00:34:29;100153.00;;;18.89;49.25
52651;BME280;38537;47.226;39.702;2023-06-19T00:36:58;100144.31;;;18.78;49.13
52651;BME280;38537;47.226;39.702;2023-06-19T00:39:25;100154.94;;;18.84;48.87
52651;BME280;38537;47.226;39.702;2023-06-19T00:41:53;100133.72;;;18.75;49.08
52651;BME280;38537;47.226;39.702;2023-06-19T00:44:22;100144.84;;;18.68;48.99
52651;BME280;38537;47.226;39.702;2023-06-19T00:46:53;100154.53;;;18.67;49.22
52651;BME280;38537;47.226;39.702;2023-06-19T00:49:29;100149.53;;;18.60;49.60
52651;BME280;38537;47.226;39.702;2023-06-19T00:51:56;100163.47;;;18.69;49.19
52651;BME280;38537;47.226;39.702;2023-06-19T00:54:24;100155.06;;;18.57;49.19
52651;BME280;38537;47.226;39.702;2023-06-19T00:56:51;100166.94;;;18.62;49.29
52651;BME280;38537;47.226;39.702;2023-06-19T00:59:20;100183.91;;;18.62;49.22
52651;BME280;38537;47.226;39.702;2023-06-19T01:01:47;100163.38;;;18.49;49.31
52651;BME280;38537;47.226;39.702;2023-06-19T01:04:14;100173.59;;;18.54;49.29
52651;BME280;38537;47.226;39.702;2023-06-19T01:06:53;100184.53;;;18.56;49.39
52651;BME280;38537;47.226;39.702;2023-06-19T01:09:29;100140.59;;;18.27;49.12
52651;BME280;38537;47.226;39.702;2023-06-19T01:12:12;100168.03;;;18.42;49.45
52651;BME280;38537;47.226;39.702;2023-06-19T01:14:53;100185.28;;;18.53;49.53
52651;BME280;38537;47.226;39.702;2023-06-19T01:17:22;100154.38;;;18.28;49.52
52651;BME280;38537;47.226;39.702;2023-06-19T01:19:50;100159.53;;;18.42;49.55
52651;BME280;38537;47.226;39.702;2023-06-19T01:22:27;100178.69;;;18.48;48.71
52651;BME280;38537;47.226;39.702;2023-06-19T01:24:59;100166.94;;;18.46;49.00
52651;BME280;38537;47.226;39.702;2023-06-19T01:27:31;100166.47;;;18.44;48.54
52651;BME280;38537;47.226;39.702;2023-06-19T01:30:02;100188.56;;;18.55;48.32
52651;BME280;38537;47.226;39.702;2023-06-19T01:32:56;100177.00;;;18.60;47.93
52651;BME280;38537;47.226;39.702;2023-06-19T01:35:32;100173.78;;;18.45;48.14
52651;BME280;38537;47.226;39.702;2023-06-19T01:38:00;100184.44;;;18.52;48.34
52651;BME280;38537;47.226;39.702;2023-06-19T01:40:33;100176.16;;;18.43;48.17
52651;BME280;38537;47.226;39.702;2023-06-19T01:43:01;100165.41;;;18.33;48.26
52651;BME280;38537;47.226;39.702;2023-06-19T01:45:30;100191.00;;;18.40;48.32
52651;BME280;38537;47.226;39.702;2023-06-19T01:48:00;100177.91;;;18.32;48.50
52651;BME280;38537;47.226;39.702;2023-06-19T01:50:28;100179.91;;;18.32;48.48
52651;BME280;38537;47.226;39.702;2023-06-19T01:52:55;100186.28;;;18.29;48.62
52651;BME280;38537;47.226;39.702;2023-06-19T01:55:22;100185.38;;;18.25;48.44
52651;BME280;38537;47.226;39.702;2023-06-19T01:57:50;100195.94;;;18.28;48.34
52651;BME280;38537;47.226;39.702;2023-06-19T02:00:17;100192.66;;;18.26;48.37
52651;BME280;38537;47.226;39.702;2023-06-19T02:02:45;100178.72;;;18.17;48.36
52651;BME280;38537;47.226;39.702;2023-06-19T02:05:13;100202.22;;;18.21;48.45
52651;BME280;38537;47.226;39.702;2023-06-19T02:07:41;100214.44;;;18.25;48.60
52651;BME280;38537;47.226;39.702;2023-06-19T02:10:08;100202.97;;;18.18;48.56
52651;BME280;38537;47.226;39.702;2023-06-19T02:12:37;100184.63;;;18.12;48.64
52651;BME280;38537;47.226;39.702;2023-06-19T02:15:05;100196.13;;;18.19;48.53
52651;BME280;38537;47.226;39.702;2023-06-19T02:17:35;100195.84;;;18.24;48.62
52651;BME280;38537;47.226;39.702;2023-06-19T02:20:04;100205.50;;;18.23;48.37
52651;BME280;38537;47.226;39.702;2023-06-19T02:22:38;100207.63;;;18.26;48.35
52651;BME280;38537;47.226;39.702;2023-06-19T02:25:07;100198.94;;;18.19;48.37
52651;BME280;38537;47.226;39.702;2023-06-19T02:27:35;100208.53;;;18.30;48.37
52651;BME280;38537;47.226;39.702;2023-06-19T02:30:03;100193.84;;;18.25;48.28
52651;BME280;38537;47.226;39.702;2023-06-19T02:32:33;100201.13;;;18.26;48.42
52651;BME280;38537;47.226;39.702;2023-06-19T02:35:05;100218.28;;;18.33;48.68
52651;BME280;38537;47.226;39.702;2023-06-19T02:37:34;100198.22;;;18.22;48.39
52651;BME280;38537;47.226;39.702;2023-06-19T02:40:07;100209.72;;;18.29;48.31
52651;BME280;38537;47.226;39.702;2023-06-19T02:42:36;100208.91;;;18.29;48.00
52651;BME280;38537;47.226;39.702;2023-06-19T02:45:04;100223.59;;;18.34;48.68
52651;BME280;38537;47.226;39.702;2023-06-19T02:47:40;100211.56;;;18.37;48.35
52651;BME280;38537;47.226;39.702;2023-06-19T02:50:08;100212.44;;;18.41;48.42
52651;BME280;38537;47.226;39.702;2023-06-19T02:52:37;100224.75;;;18.49;48.29
52651;BME280;38537;47.226;39.702;2023-06-19T02:55:04;100186.38;;;18.32;48.37
52651;BME280;38537;47.226;39.702;2023-06-19T02:57:34;100216.38;;;18.53;48.33
52651;BME280;38537;47.226;39.702;2023-06-19T03:00:04;100211.19;;;18.55;47.96
52651;BME280;38537;47.226;39.702;2023-06-19T03:02:36;100203.16;;;18.57;47.94
52651;BME280;38537;47.226;39.702;2023-06-19T03:05:05;100204.53;;;18.63;47.93
52651;BME280;38537;47.226;39.702;2023-06-19T03:07:33;100206.00;;;18.72;47.76
52651;BME280;38537;47.226;39.702;2023-06-19T03:10:02;100203.53;;;18.71;47.54
52651;BME280;38537;47.226;39.702;2023-06-19T03:12:31;100216.22;;;18.77;47.50
52651;BME280;38537;47.226;39.702;2023-06-19T03:14:58;100189.66;;;18.66;47.29
52651;BME280;38537;47.226;39.702;2023-06-19T03:17:29;100215.34;;;18.92;47.41
52651;BME280;38537;47.226;39.702;2023-06-19T03:19:58;100220.47;;;18.87;47.00
52651;BME280;38537;47.226;39.702;2023-06-19T03:22:26;100216.53;;;18.91;47.06
52651;BME280;38537;47.226;39.702;2023-06-19T03:24:54;100219.63;;;19.02;47.07
52651;BME280;38537;47.226;39.702;2023-06-19T03:27:22;100230.38;;;19.12;46.75
52651;BME280;38537;47.226;39.702;2023-06-19T03:29:53;100199.81;;;19.02;46.65
52651;BME280;38537;47.226;39.702;2023-06-19T03:32:30;100214.28;;;19.16;46.61
52651;BME280;38537;47.226;39.702;2023-06-19T03:35:00;100226.59;;;19.24;46.52
52651;BME280;38537;47.226;39.702;2023-06-19T03:37:29;100213.75;;;19.10;46.22
52651;BME280;38537;47.226;39.702;2023-06-19T03:40:04;100217.03;;;19.12;46.27
52651;BME280;38537;47.226;39.702;2023-06-19T03:42:38;100194.75;;;19.11;46.43
52651;BME280;38537;47.226;39.702;2023-06-19T03:45:06;100198.94;;;19.17;46.51
52651;BME280;38537;47.226;39.702;2023-06-19T03:47:34;100204.53;;;19.33;46.28
52651;BME280;38537;47.226;39.702;2023-06-19T03:50:02;100227.91;;;19.45;46.02
52651;BME280;38537;47.226;39.702;2023-06-19T03:52:48;100230.66;;;19.42;46.05
52651;BME280;38537;47.226;39.702;2023-06-19T03:55:17;100243.63;;;19.43;45.92
52651;BME280;38537;47.226;39.702;2023-06-19T03:57:45;100226.00;;;19.34;46.19
52651;BME280;38537;47.226;39.702;2023-06-19T04:00:15;100240.88;;;19.46;46.37
52651;BME280;38537;47.226;39.702;2023-06-19T04:02:48;100236.31;;;19.42;45.99
52651;BME280;38537;47.226;39.702;2023-06-19T04:05:16;100217.50;;;19.34;46.33
52651;BME280;38537;47.226;39.702;2023-06-19T04:07:43;100237.38;;;19.53;46.21
52651;BME280;38537;47.226;39.702;2023-06-19T04:10:15;100225.13;;;19.49;46.45
52651;BME280;38537;47.226;39.702;2023-06-19T04:12:42;100235.53;;;19.61;46.38
52651;BME280;38537;47.226;39.702;2023-06-19T04:15:12;100252.38;;;19.73;46.72
52651;BME280;38537;47.226;39.702;2023-06-19T04:17:43;100241.41;;;19.71;46.58
52651;BME280;38537;47.226;39.702;2023-06-19T04:20:11;100225.59;;;19.70;46.47
52651;BME280;38537;47.226;39.702;2023-06-19T04:22:39;100225.31;;;19.75;46.47
52651;BME280;38537;47.226;39.702;2023-06-19T04:25:08;100254.91;;;19.97;46.38
52651;BME280;38537;47.226;39.702;2023-06-19T04:27:36;100250.50;;;20.00;46.53
52651;BME280;38537;47.226;39.702;2023-06-19T04:30:04;100246.16;;;20.06;46.33
52651;BME280;38537;47.226;39.702;2023-06-19T04:32:35;100249.56;;;20.15;46.04
52651;BME280;38537;47.226;39.702;2023-06-19T04:35:03;100236.09;;;20.08;46.02
52651;BME280;38537;47.226;39.702;2023-06-19T04:37:33;100243.16;;;20.18;45.83
52651;BME280;38537;47.226;39.702;2023-06-19T04:40:02;100258.56;;;20.40;46.00
52651;BME280;38537;47.226;39.702;2023-06-19T04:42:31;100257.06;;;20.46;46.12
52651;BME280;38537;47.226;39.702;2023-06-19T04:44:58;100244.97;;;20.49;45.85
52651;BME280;38537;47.226;39.702;2023-06-19T04:47:29;100238.28;;;20.61;45.77
52651;BME280;38537;47.226;39.702;2023-06-19T04:50:17;100238.47;;;20.71;45.41
52651;BME280;38537;47.226;39.702;2023-06-19T04:52:44;100257.59;;;21.01;45.45
52651;BME280;38537;47.226;39.702;2023-06-19T04:55:11;100251.88;;;20.97;44.80
52651;BME280;38537;47.226;39.702;2023-06-19T04:57:38;100250.38;;;21.07;44.96
52651;BME280;38537;47.226;39.702;2023-06-19T05:00:07;100248.22;;;20.97;44.51
52651;BME280;38537;47.226;39.702;2023-06-19T05:02:34;100263.31;;;21.04;44.37
52651;BME280;38537;47.226;39.702;2023-06-19T05:05:02;100266.34;;;21.15;44.60
52651;BME280;38537;47.226;39.702;2023-06-19T05:07:32;100257.56;;;21.24;44.65
52651;BME280;38537;47.226;39.702;2023-06-19T05:10:00;100258.44;;;21.28;44.00
52651;BME280;38537;47.226;39.702;2023-06-19T05:12:30;100259.81;;;21.37;44.57
52651;BME280;38537;47.226;39.702;2023-06-19T05:14:58;100238.66;;;21.35;44.25
52651;BME280;38537;47.226;39.702;2023-06-19T05:17:25;100246.75;;;21.33;43.98
52651;BME280;38537;47.226;39.702;2023-06-19T05:19:53;100246.31;;;21.31;44.13
52651;BME280;38537;47.226;39.702;2023-06-19T05:22:20;100251.63;;;21.32;44.23
52651;BME280;38537;47.226;39.702;2023-06-19T05:24:48;100242.50;;;21.19;43.71
52651;BME280;38537;47.226;39.702;2023-06-19T05:27:16;100255.38;;;21.13;43.64
52651;BME280;38537;47.226;39.702;2023-06-19T05:29:43;100230.69;;;21.17;43.71
52651;BME280;38537;47.226;39.702;2023-06-19T05:32:10;100263.47;;;21.38;43.74
52651;BME280;38537;47.226;39.702;2023-06-19T05:34:38;100241.72;;;21.23;43.78
52651;BME280;38537;47.226;39.702;2023-06-19T05:37:05;100259.06;;;21.40;43.91
52651;BME280;38537;47.226;39.702;2023-06-19T05:39:32;100249.22;;;21.34;43.62
52651;BME280;38537;47.226;39.702;2023-06-19T05:42:00;100255.03;;;21.45;43.96
52651;BME280;38537;47.226;39.702;2023-06-19T05:44:29;100262.06;;;21.54;44.05
52651;BME280;38537;47.226;39.702;2023-06-19T05:46:56;100258.97;;;21.63;43.52
52651;BME280;38537;47.226;39.702;2023-06-19T05:49:23;100261.00;;;21.66;43.04
52651;BME280;38537;47.226;39.702;2023-06-19T05:51:50;100253.16;;;21.56;43.02
52651;BME280;38537;47.226;39.702;2023-06-19T05:54:19;100244.53;;;21.49;41.94
52651;BME280;38537;47.226;39.702;2023-06-19T05:56:47;100254.44;;;21.59;42.61
52651;BME280;38537;47.226;39.702;2023-06-19T05:59:17;100250.38;;;21.60;43.14
52651;BME280;38537;47.226;39.702;2023-06-19T06:01:44;100255.41;;;21.73;42.88
52651;BME280;38537;47.226;39.702;2023-06-19T06:04:12;100238.81;;;21.75;42.87
52651;BME280;38537;47.226;39.702;2023-06-19T06:06:40;100236.09;;;21.86;42.46
52651;BME280;38537;47.226;39.702;2023-06-19T06:09:08;100245.91;;;21.92;42.03
52651;BME280;38537;47.226;39.702;2023-06-19T06:11:39;100230.75;;;21.81;41.71
52651;BME280;38537;47.226;39.702;2023-06-19T06:14:06;100241.75;;;21.82;41.70
52651;BME280;38537;47.226;39.702;2023-06-19T06:16:33;100236.00;;;21.79;42.00
52651;BME280;38537;47.226;39.702;2023-06-19T06:19:01;100221.38;;;21.77;42.39
52651;BME280;38537;47.226;39.702;2023-06-19T06:21:28;100243.53;;;21.98;42.42
52651;BME280;38537;47.226;39.702;2023-06-19T06:23:55;100240.00;;;22.04;42.37
52651;BME280;38537;47.226;39.702;2023-06-19T06:26:23;100247.53;;;22.23;42.23
52651;BME280;38537;47.226;39.702;2023-06-19T06:28:50;100248.00;;;22.32;42.15
52651;BME280;38537;47.226;39.702;2023-06-19T06:31:17;100237.00;;;22.31;42.30
52651;BME280;38537;47.226;39.702;2023-06-19T06:33:44;100246.50;;;22.42;42.54
52651;BME280;38537;47.226;39.702;2023-06-19T06:36:14;100255.53;;;22.51;41.95
52651;BME280;38537;47.226;39.702;2023-06-19T06:38:56;100237.59;;;22.47;41.83
52651;BME280;38537;47.226;39.702;2023-06-19T06:41:23;100255.53;;;22.54;41.51
52651;BME280;38537;47.226;39.702;2023-06-19T06:43:50;100260.78;;;22.49;40.89
52651;BME280;38537;47.226;39.702;2023-06-19T06:46:17;100264.88;;;22.51;41.39
52651;BME280;38537;47.226;39.702;2023-06-19T06:48:45;100251.50;;;22.55;41.40
52651;BME280;38537;47.226;39.702;2023-06-19T06:51:12;100250.34;;;22.64;41.02
52651;BME280;38537;47.226;39.702;2023-06-19T06:53:39;100261.50;;;22.79;41.18
52651;BME280;38537;47.226;39.702;2023-06-19T06:56:06;100254.91;;;22.75;40.96
52651;BME280;38537;47.226;39.702;2023-06-19T06:58:34;100255.81;;;22.79;40.78
52651;BME280;38537;47.226;39.702;2023-06-19T07:01:01;100240.69;;;22.75;40.92
52651;BME280;38537;47.226;39.702;2023-06-19T07:03:28;100264.47;;;22.94;41.11
52651;BME280;38537;47.226;39.702;2023-06-19T07:05:59;100276.34;;;23.03;41.14
52651;BME280;38537;47.226;39.702;2023-06-19T07:08:26;100264.38;;;22.83;41.43
52651;BME280;38537;47.226;39.702;2023-06-19T07:10:53;100255.84;;;22.83;41.60
52651;BME280;38537;47.226;39.702;2023-06-19T07:13:21;100253.03;;;22.86;41.40
52651;BME280;38537;47.226;39.702;2023-06-19T07:15:48;100265.41;;;23.08;40.96
52651;BME280;38537;47.226;39.702;2023-06-19T07:18:15;100269.50;;;23.11;40.94
52651;BME280;38537;47.226;39.702;2023-06-19T07:20:42;100269.09;;;23.12;40.99
52651;BME280;38537;47.226;39.702;2023-06-19T07:23:10;100278.91;;;23.22;40.92
52651;BME280;38537;47.226;39.702;2023-06-19T07:25:37;100274.44;;;23.21;41.35
52651;BME280;38537;47.226;39.702;2023-06-19T07:28:05;100254.34;;;23.00;40.88
52651;BME280;38537;47.226;39.702;2023-06-19T07:30:32;100255.28;;;23.14;40.33
52651;BME280;38537;47.226;39.702;2023-06-19T07:33:00;100275.22;;;23.18;39.60
52651;BME280;38537;47.226;39.702;2023-06-19T07:35:27;100274.81;;;23.16;40.52
52651;BME280;38537;47.226;39.702;2023-06-19T07:37:55;100284.28;;;23.31;41.04
52651;BME280;38537;47.226;39.702;2023-06-19T07:40:23;100271.66;;;23.32;40.22
52651;BME280;38537;47.226;39.702;2023-06-19T07:42:52;100283.16;;;23.46;40.69
52651;BME280;38537;47.226;39.702;2023-06-19T07:45:19;100293.44;;;23.57;40.21
52651;BME280;38537;47.226;39.702;2023-06-19T07:47:58;100273.81;;;23.49;39.00
52651;BME280;38537;47.226;39.702;2023-06-19T07:50:26;100284.91;;;23.65;39.99
52651;BME280;38537;47.226;39.702;2023-06-19T07:52:55;100274.34;;;23.65;38.98
52651;BME280;38537;47.226;39.702;2023-06-19T07:55:22;100284.59;;;23.84;39.50
52651;BME280;38537;47.226;39.702;2023-06-19T07:57:49;100265.88;;;23.79;39.63
52651;BME280;38537;47.226;39.702;2023-06-19T08:00:17;100279.38;;;23.93;39.21
52651;BME280;38537;47.226;39.702;2023-06-19T08:02:44;100252.84;;;23.85;39.14
52651;BME280;38537;47.226;39.702;2023-06-19T08:05:11;100256.56;;;23.97;39.04
52651;BME280;38537;47.226;39.702;2023-06-19T08:07:39;100275.75;;;24.10;39.30
52651;BME280;38537;47.226;39.702;2023-06-19T08:10:07;100269.66;;;24.15;39.71
52651;BME280;38537;47.226;39.702;2023-06-19T08:12:53;100263.56;;;24.20;38.83
52651;BME280;38537;47.226;39.702;2023-06-19T08:15:21;100265.63;;;24.27;38.88
52651;BME280;38537;47.226;39.702;2023-06-19T08:17:48;100242.78;;;24.23;39.15
52651;BME280;38537;47.226;39.702;2023-06-19T08:20:15;100251.41;;;24.41;39.03
52651;BME280;38537;47.226;39.702;2023-06-19T08:22:43;100251.41;;;24.52;38.86
52651;BME280;38537;47.226;39.702;2023-06-19T08:25:10;100246.13;;;24.57;38.79
52651;BME280;38537;47.226;39.702;2023-06-19T08:27:37;100267.75;;;24.73;38.61
52651;BME280;38537;47.226;39.702;2023-06-19T08:30:05;100275.94;;;24.78;37.56
52651;BME280;38537;47.226;39.702;2023-06-19T08:32:33;100268.97;;;24.72;37.10
52651;BME280;38537;47.226;39.702;2023-06-19T08:35:02;100273.06;;;24.78;37.42
52651;BME280;38537;47.226;39.702;2023-06-19T08:37:31;100269.81;;;24.76;36.70
52651;BME280;38537;47.226;39.702;2023-06-19T08:40:02;100263.25;;;24.72;36.54
52651;BME280;38537;47.226;39.702;2023-06-19T08:42:32;100255.09;;;24.74;37.20
52651;BME280;38537;47.226;39.702;2023-06-19T08:44:59;100266.56;;;24.84;35.91
52651;BME280;38537;47.226;39.702;2023-06-19T08:47:32;100260.84;;;24.84;34.75
52651;BME280;38537;47.226;39.702;2023-06-19T08:50:01;100269.84;;;24.97;36.20
52651;BME280;38537;47.226;39.702;2023-06-19T08:52:30;100264.91;;;24.90;34.72
52651;BME280;38537;47.226;39.702;2023-06-19T08:54:58;100271.47;;;24.94;34.38
52651;BME280;38537;47.226;39.702;2023-06-19T08:57:38;100282.09;;;25.01;34.06
52651;BME280;38537;47.226;39.702;2023-06-19T09:00:07;100267.00;;;25.11;35.63
52651;BME280;38537;47.226;39.702;2023-06-19T09:02:42;100278.81;;;24.99;32.46
52651;BME280;38537;47.226;39.702;2023-06-19T09:05:15;100273.09;;;24.88;34.03
52651;BME280;38537;47.226;39.702;2023-06-19T09:07:44;100275.50;;;24.93;35.51
52651;BME280;38537;47.226;39.702;2023-06-19T09:10:18;100253.09;;;24.85;34.35
52651;BME280;38537;47.226;39.702;2023-06-19T09:15:31;100266.13;;;24.75;34.82
52651;BME280;38537;47.226;39.702;2023-06-19T09:18:10;100267.75;;;24.90;34.11
52651;BME280;38537;47.226;39.702;2023-06-19T09:20:40;100263.69;;;24.91;34.93
52651;BME280;38537;47.226;39.702;2023-06-19T09:23:12;100265.75;;;24.98;35.09
52651;BME280;38537;47.226;39.702;2023-06-19T09:25:54;100266.97;;;25.01;34.85
52651;BME280;38537;47.226;39.702;2023-06-19T09:28:31;100255.97;;;25.03;35.10
52651;BME280;38537;47.226;39.702;2023-06-19T09:31:02;100271.44;;;25.12;33.61
52651;BME280;38537;47.226;39.702;2023-06-19T09:33:33;100260.84;;;25.02;33.88
52651;BME280;38537;47.226;39.702;2023-06-19T09:36:02;100261.69;;;25.03;34.54
52651;BME280;38537;47.226;39.702;2023-06-19T09:38:32;100264.94;;;25.08;34.56
52651;BME280;38537;47.226;39.702;2023-06-19T09:41:02;100257.97;;;25.13;34.25
52651;BME280;38537;47.226;39.702;2023-06-19T09:46:02;100257.19;;;24.98;32.96
52651;BME280;38537;47.226;39.702;2023-06-19T09:48:32;100273.50;;;25.01;34.25
52651;BME280;38537;47.226;39.702;2023-06-19T09:54:10;100245.34;;;25.07;35.32
52651;BME280;38537;47.226;39.702;2023-06-19T09:56:39;100231.88;;;25.11;35.19
52651;BME280;38537;47.226;39.702;2023-06-19T09:59:06;100237.16;;;25.19;35.26
52651;BME280;38537;47.226;39.702;2023-06-19T10:01:36;100242.00;;;25.37;35.37
52651;BME280;38537;47.226;39.702;2023-06-19T10:04:08;100251.81;;;25.39;34.69
52651;BME280;38537;47.226;39.702;2023-06-19T10:06:45;100246.97;;;25.22;33.99
52651;BME280;38537;47.226;39.702;2023-06-19T10:09:14;100251.03;;;25.17;34.26
52651;BME280;38537;47.226;39.702;2023-06-19T10:14:14;100247.72;;;25.37;34.71
52651;BME280;38537;47.226;39.702;2023-06-19T10:16:41;100226.50;;;25.38;35.39
52651;BME280;38537;47.226;39.702;2023-06-19T10:19:18;100252.22;;;25.48;33.89
52651;BME280;38537;47.226;39.702;2023-06-19T10:21:54;100243.63;;;25.48;34.75
52651;BME280;38537;47.226;39.702;2023-06-19T10:24:23;100235.06;;;25.48;34.89
52651;BME280;38537;47.226;39.702;2023-06-19T10:27:02;100229.28;;;25.55;35.51
52651;BME280;38537;47.226;39.702;2023-06-19T10:29:40;100251.81;;;25.46;34.26
52651;BME280;38537;47.226;39.702;2023-06-19T10:32:23;100226.94;;;25.33;35.24
52651;BME280;38537;47.226;39.702;2023-06-19T10:34:51;100240.81;;;25.31;35.30
52651;BME280;38537;47.226;39.702;2023-06-19T10:37:32;100240.81;;;25.31;35.23
52651;BME280;38537;47.226;39.702;2023-06-19T10:39:59;100242.84;;;25.37;35.47
52651;BME280;38537;47.226;39.702;2023-06-19T10:42:27;100217.56;;;25.25;35.50
52651;BME280;38537;47.226;39.702;2023-06-19T10:45:02;100225.31;;;25.32;35.42
52651;BME280;38537;47.226;39.702;2023-06-19T10:47:35;100218.31;;;25.36;35.14
52651;BME280;38537;47.226;39.702;2023-06-19T10:50:03;100208.56;;;25.30;34.86
52651;BME280;38537;47.226;39.702;2023-06-19T10:52:31;100200.75;;;25.38;35.10
52651;BME280;38537;47.226;39.702;2023-06-19T10:55:03;100223.97;;;25.61;35.18
52651;BME280;38537;47.226;39.702;2023-06-19T10:57:31;100217.06;;;25.66;35.85
52651;BME280;38537;47.226;39.702;2023-06-19T10:59:58;100219.03;;;25.79;35.43
52651;BME280;38537;47.226;39.702;2023-06-19T11:02:31;100207.16;;;25.84;35.14
52651;BME280;38537;47.226;39.702;2023-06-19T11:04:59;100210.91;;;25.74;35.19
52651;BME280;38537;47.226;39.702;2023-06-19T11:07:31;100207.97;;;25.81;35.55
52651;BME280;38537;47.226;39.702;2023-06-19T11:09:59;100197.00;;;25.76;35.59
52651;BME280;38537;47.226;39.702;2023-06-19T11:12:32;100200.28;;;25.71;35.38
52651;BME280;38537;47.226;39.702;2023-06-19T11:15:05;100224.38;;;25.70;35.40
52651;BME280;38537;47.226;39.702;2023-06-19T11:17:32;100219.09;;;25.65;35.55
52651;BME280;38537;47.226;39.702;2023-06-19T11:20:00;100204.81;;;25.54;35.72
52651;BME280;38537;47.226;39.702;2023-06-19T11:22:40;100207.66;;;25.65;35.60
52651;BME280;38537;47.226;39.702;2023-06-19T11:25:09;100200.28;;;25.75;35.41
52651;BME280;38537;47.226;39.702;2023-06-19T11:27:38;100199.41;;;25.81;36.49
52651;BME280;38537;47.226;39.702;2023-06-19T11:30:07;100208.34;;;25.90;35.50
52651;BME280;38537;47.226;39.702;2023-06-19T11:32:37;100209.91;;;26.02;35.89
52651;BME280;38537;47.226;39.702;2023-06-19T11:35:12;100209.47;;;26.11;36.13
52651;BME280;38537;47.226;39.702;2023-06-19T11:37:41;100207.06;;;25.99;34.75
52651;BME280;38537;47.226;39.702;2023-06-19T11:40:09;100171.25;;;25.76;35.15
52651;BME280;38537;47.226;39.702;2023-06-19T11:42:53;100209.19;;;25.87;35.27
52651;BME280;38537;47.226;39.702;2023-06-19T11:45:21;100200.97;;;25.97;35.23
52651;BME280;38537;47.226;39.702;2023-06-19T11:47:49;100186.66;;;25.97;35.30
52651;BME280;38537;47.226;39.702;2023-06-19T11:50:17;100189.94;;;25.95;35.38
52651;BME280;38537;47.226;39.702;2023-06-19T11:52:47;100168.72;;;25.85;34.95
52651;BME280;38537;47.226;39.702;2023-06-19T11:55:14;100187.03;;;25.99;34.87
52651;BME280;38537;47.226;39.702;2023-06-19T11:57:43;100170.25;;;26.04;35.35
52651;BME280;38537;47.226;39.702;2023-06-19T12:00:14;100193.53;;;26.06;34.00
52651;BME280;38537;47.226;39.702;2023-06-19T12:02:44;100188.75;;;25.89;34.19
52651;BME280;38537;47.226;39.702;2023-06-19T12:05:14;100167.50;;;25.86;34.48
52651;BME280;38537;47.226;39.702;2023-06-19T12:07:44;100165.97;;;25.71;34.06
52651;BME280;38537;47.226;39.702;2023-06-19T12:10:11;100158.19;;;25.75;34.40
52651;BME280;38537;47.226;39.702;2023-06-19T12:12:39;100155.69;;;25.77;34.18
52651;BME280;38537;47.226;39.702;2023-06-19T12:15:06;100143.91;;;25.68;33.64
52651;BME280;38537;47.226;39.702;2023-06-19T12:17:37;100158.53;;;25.84;34.33
52651;BME280;38537;47.226;39.702;2023-06-19T12:20:05;100174.81;;;25.94;33.83
52651;BME280;38537;47.226;39.702;2023-06-19T12:22:34;100157.66;;;25.94;33.80
52651;BME280;38537;47.226;39.702;2023-06-19T12:25:02;100151.94;;;25.94;34.34
52651;BME280;38537;47.226;39.702;2023-06-19T12:27:32;100161.22;;;26.13;34.81
52651;BME280;38537;47.226;39.702;2023-06-19T12:30:01;100149.34;;;26.14;34.56
52651;BME280;38537;47.226;39.702;2023-06-19T12:32:34;100157.44;;;26.23;34.36
52651;BME280;38537;47.226;39.702;2023-06-19T12:35:02;100140.69;;;26.21;34.48
52651;BME280;38537;47.226;39.702;2023-06-19T12:37:33;100146.78;;;26.27;34.09
52651;BME280;38537;47.226;39.702;2023-06-19T12:40:01;100131.66;;;26.26;33.91
52651;BME280;38537;47.226;39.702;2023-06-19T12:42:30;100130.06;;;26.22;33.91
52651;BME280;38537;47.226;39.702;2023-06-19T12:44:58;100152.50;;;26.34;33.72
52651;BME280;38537;47.226;39.702;2023-06-19T12:47:25;100153.03;;;26.11;33.54
52651;BME280;38537;47.226;39.702;2023-06-19T12:49:52;100158.78;;;26.11;33.53
52651;BME280;38537;47.226;39.702;2023-06-19T12:52:20;100155.81;;;26.22;33.64
52651;BME280;38537;47.226;39.702;2023-06-19T12:54:50;100127.31;;;26.04;33.17
52651;BME280;38537;47.226;39.702;2023-06-19T12:57:18;100156.75;;;26.08;33.26
52651;BME280;38537;47.226;39.702;2023-06-19T12:59:45;100146.09;;;26.09;33.65
52651;BME280;38537;47.226;39.702;2023-06-19T13:02:12;100139.06;;;26.20;34.15
52651;BME280;38537;47.226;39.702;2023-06-19T13:04:43;100145.19;;;26.22;33.41